Flight Track Log - Related Links

Times and Time Zones

All times are in EDT time to prevent confusion due to time zone crossing. See the N1DH flight status page for this flight to view local times or setup timezone preferences in your user account.

Time Position Orientation Groundspeed Altitude Reporting Facility
EDT Latitude Longitude Course Direction KTS MPH feet Rate Location/Type
Wed 01:04:05 AM 36.0428 -115.1844 203° Southwest 206 237 5,000  Level Los Angeles Center
Wed 01:04:55 AM 35.9983 -115.2189 212° Southwest 273 314 7,700 3,639 Climbing Los Angeles Center
Wed 01:05:06 AM 35.9803 -115.2236 192° South 275 316 8,700 3,443 Climbing Los Angeles Center
Wed 01:05:56 AM 35.9422 -115.1686 131° Southeast 285 328 11,200 3,200 Climbing Los Angeles Center
Wed 01:06:06 AM 35.9436 -115.1453 86° East 300 345 11,900 2,557 Climbing Los Angeles Center
Wed 01:06:57 AM 35.9392 -115.0569 94° East 312 359 13,800 2,270 Climbing Los Angeles Center
Wed 01:07:57 AM 35.9372 -114.9389 91° East 331 381 16,100 2,231 Climbing Los Angeles Center
Wed 01:08:58 AM 35.9356 -114.8050 91° East 364 419 18,300 2,066 Climbing Los Angeles Center
Wed 01:09:59 AM 35.9094 -114.6628 103° East 403 464 20,300 1,967 Climbing Los Angeles Center
Wed 01:11:00 AM 35.8447 -114.5367 122° Southeast 423 487 22,300 1,918 Climbing Los Angeles Center
Wed 01:12:01 AM 35.7772 -114.4086 123° Southeast 439 505 24,200 1,918 Climbing Los Angeles Center
Wed 01:13:02 AM 35.7069 -114.2811 124° Southeast 448 516 26,200 1,983 Climbing Los Angeles Center
Wed 01:14:02 AM 35.6258 -114.1300 123° Southeast 456 525 28,200 1,388 Climbing Los Angeles Center
Wed 01:15:03 AM 35.5553 -114.0003 124° Southeast 459 528 29,000 393 Climbing Los Angeles Center
Wed 01:16:04 AM 35.4775 -113.8622 125° Southeast 489 563 29,000  Level Los Angeles Center
Wed 01:17:05 AM 35.4006 -113.7203 124° Southeast 503 579 29,000  Level Los Angeles Center
Wed 01:18:06 AM 35.3217 -113.5789 124° Southeast 506 582 29,000  Level Los Angeles Center
Wed 01:19:07 AM 35.2425 -113.4369 124° Southeast 512 589 29,000  Level Los Angeles Center
Wed 01:20:07 AM 35.1642 -113.2953 124° Southeast 511 588 29,000  Level Los Angeles Center
Wed 01:21:01 AM 35.0808 -113.1606 127° Southeast 508 585 29,000  Level Albuquerque Center
Wed 01:22:02 AM 34.9911 -113.0331 131° Southeast 505 581 29,000  Level Albuquerque Center
Wed 01:23:02 AM 34.8994 -112.9033 131° Southeast 510 587 29,000 -550 Level Albuquerque Center
Wed 01:24:02 AM 34.8092 -112.7739 130° Southeast 509 586 27,900 -1,785 Descending Albuquerque Center
Wed 01:25:03 AM 34.7189 -112.6456 131° Southeast 506 582 25,400 -2,430 Descending Albuquerque Center
Wed 01:26:03 AM 34.6325 -112.5239 131° Southeast 488 562 23,000 -2,400 Descending Albuquerque Center
Wed 01:27:03 AM 34.5478 -112.4061 131° Southeast 472 543 20,600 -2,331 Descending Albuquerque Center
Wed 01:28:04 AM 34.4636 -112.2886 131° Southeast 473 544 18,300 -2,331 Descending Albuquerque Center
Wed 01:29:04 AM 34.3786 -112.1706 131° Southeast 469 540 15,900 -2,200 Descending Albuquerque Center
Wed 01:30:04 AM 34.3072 -112.0714 131° Southeast 416 479 13,900 -1,983 Descending Albuquerque Center
Wed 01:31:05 AM 34.2367 -111.9750 132° Southeast 347 399 11,900 -1,488 Descending Albuquerque Center
Wed 01:32:05 AM 34.1731 -111.9328 151° Southeast 271 312 10,900 -450 Descending Albuquerque Center
Wed 01:33:05 AM 34.1031 -111.9267 176° South 254 292 11,000 -645 Climbing Albuquerque Center
Wed 01:34:06 AM 34.0319 -111.9247 179° South 258 297 9,600 -1,388 Descending Albuquerque Center
Wed 01:35:06 AM 33.9633 -111.9158 174° South 254 292 8,200 -1,400 Descending Albuquerque Center
Wed 01:36:06 AM 33.8922 -111.9056 173° South 262 302 6,800 -1,091 Descending Albuquerque Center
Wed 01:37:07 AM 33.8308 -111.8981 174° South 256 295 6,000 -787 Descending Albuquerque Center

Login

Don't have an account? Register now (free) for customized features, flight alerts, and more!